sensor_id;sensor_type;location;lat;lon;timestamp;P1;durP1;ratioP1;P2;durP2;ratioP2
45836;SDS011;31548;51.420;-0.040;2024-02-28T00:02:10;4.90;;;0.80;;
45836;SDS011;31548;51.420;-0.040;2024-02-28T00:04:39;6.75;;;1.00;;
45836;SDS011;31548;51.420;-0.040;2024-02-28T00:07:07;7.00;;;0.98;;
45836;SDS011;31548;51.420;-0.040;2024-02-28T00:09:35;9.50;;;0.95;;
45836;SDS011;31548;51.420;-0.040;2024-02-28T00:12:03;9.20;;;0.80;;
45836;SDS011;31548;51.420;-0.040;2024-02-28T00:14:30;6.13;;;0.98;;
45836;SDS011;31548;51.420;-0.040;2024-02-28T00:16:58;4.50;;;0.88;;
45836;SDS011;31548;51.420;-0.040;2024-02-28T00:19:26;7.60;;;1.25;;
45836;SDS011;31548;51.420;-0.040;2024-02-28T00:21:53;10.95;;;1.15;;
45836;SDS011;31548;51.420;-0.040;2024-02-28T00:24:21;5.32;;;0.90;;
45836;SDS011;31548;51.420;-0.040;2024-02-28T00:26:48;3.95;;;0.77;;
45836;SDS011;31548;51.420;-0.040;2024-02-28T00:29:16;7.78;;;0.98;;
45836;SDS011;31548;51.420;-0.040;2024-02-28T00:31:44;16.00;;;1.88;;
45836;SDS011;31548;51.420;-0.040;2024-02-28T00:34:11;8.77;;;1.00;;
45836;SDS011;31548;51.420;-0.040;2024-02-28T00:36:39;9.98;;;1.08;;
45836;SDS011;31548;51.420;-0.040;2024-02-28T00:39:21;7.13;;;0.95;;
45836;SDS011;31548;51.420;-0.040;2024-02-28T00:41:48;8.75;;;1.17;;
45836;SDS011;31548;51.420;-0.040;2024-02-28T00:44:16;7.07;;;0.90;;
45836;SDS011;31548;51.420;-0.040;2024-02-28T00:46:43;8.93;;;0.80;;
45836;SDS011;31548;51.420;-0.040;2024-02-28T00:49:11;8.40;;;1.05;;
45836;SDS011;31548;51.420;-0.040;2024-02-28T00:51:39;6.65;;;0.90;;
45836;SDS011;31548;51.420;-0.040;2024-02-28T00:54:06;5.07;;;1.15;;
45836;SDS011;31548;51.420;-0.040;2024-02-28T00:56:35;3.75;;;0.80;;
45836;SDS011;31548;51.420;-0.040;2024-02-28T00:59:02;8.32;;;0.80;;
45836;SDS011;31548;51.420;-0.040;2024-02-28T01:01:30;8.02;;;1.00;;
45836;SDS011;31548;51.420;-0.040;2024-02-28T01:03:58;8.18;;;1.77;;
45836;SDS011;31548;51.420;-0.040;2024-02-28T01:06:26;6.63;;;0.80;;
45836;SDS011;31548;51.420;-0.040;2024-02-28T01:08:54;8.82;;;0.95;;
45836;SDS011;31548;51.420;-0.040;2024-02-28T01:11:21;6.43;;;0.85;;
45836;SDS011;31548;51.420;-0.040;2024-02-28T01:13:49;6.07;;;0.90;;
45836;SDS011;31548;51.420;-0.040;2024-02-28T01:16:19;7.88;;;0.85;;
45836;SDS011;31548;51.420;-0.040;2024-02-28T01:18:47;6.15;;;0.80;;
45836;SDS011;31548;51.420;-0.040;2024-02-28T01:21:15;10.40;;;0.80;;
45836;SDS011;31548;51.420;-0.040;2024-02-28T01:23:42;5.80;;;0.70;;
45836;SDS011;31548;51.420;-0.040;2024-02-28T01:26:10;11.57;;;0.95;;
45836;SDS011;31548;51.420;-0.040;2024-02-28T01:28:37;3.95;;;0.70;;
45836;SDS011;31548;51.420;-0.040;2024-02-28T01:31:05;6.15;;;0.93;;
45836;SDS011;31548;51.420;-0.040;2024-02-28T01:33:32;3.55;;;0.80;;
45836;SDS011;31548;51.420;-0.040;2024-02-28T01:36:01;5.43;;;0.55;;
45836;SDS011;31548;51.420;-0.040;2024-02-28T01:38:28;11.35;;;0.98;;
45836;SDS011;31548;51.420;-0.040;2024-02-28T01:40:56;7.88;;;1.05;;
45836;SDS011;31548;51.420;-0.040;2024-02-28T01:43:23;5.28;;;0.90;;
45836;SDS011;31548;51.420;-0.040;2024-02-28T01:45:51;6.22;;;1.08;;
45836;SDS011;31548;51.420;-0.040;2024-02-28T01:48:19;7.65;;;1.05;;
45836;SDS011;31548;51.420;-0.040;2024-02-28T01:50:47;10.05;;;1.08;;
45836;SDS011;31548;51.420;-0.040;2024-02-28T01:53:15;5.50;;;0.70;;
45836;SDS011;31548;51.420;-0.040;2024-02-28T01:55:47;7.05;;;0.80;;
45836;SDS011;31548;51.420;-0.040;2024-02-28T01:58:15;4.45;;;0.70;;
45836;SDS011;31548;51.420;-0.040;2024-02-28T02:00:42;7.93;;;0.90;;
45836;SDS011;31548;51.420;-0.040;2024-02-28T02:03:13;6.43;;;0.65;;
45836;SDS011;31548;51.420;-0.040;2024-02-28T02:05:41;4.47;;;0.50;;
45836;SDS011;31548;51.420;-0.040;2024-02-28T02:08:09;2.65;;;0.57;;
45836;SDS011;31548;51.420;-0.040;2024-02-28T02:10:38;2.00;;;0.60;;
45836;SDS011;31548;51.420;-0.040;2024-02-28T02:13:06;5.05;;;0.75;;
45836;SDS011;31548;51.420;-0.040;2024-02-28T02:15:34;2.38;;;0.70;;
45836;SDS011;31548;51.420;-0.040;2024-02-28T02:18:02;5.78;;;0.70;;
45836;SDS011;31548;51.420;-0.040;2024-02-28T02:20:30;3.78;;;0.50;;
45836;SDS011;31548;51.420;-0.040;2024-02-28T02:23:01;8.85;;;0.70;;
45836;SDS011;31548;51.420;-0.040;2024-02-28T02:25:29;2.60;;;0.60;;
45836;SDS011;31548;51.420;-0.040;2024-02-28T02:27:56;3.28;;;0.60;;
45836;SDS011;31548;51.420;-0.040;2024-02-28T02:30:24;2.15;;;0.57;;
45836;SDS011;31548;51.420;-0.040;2024-02-28T02:32:52;3.33;;;0.70;;
45836;SDS011;31548;51.420;-0.040;2024-02-28T02:35:19;2.88;;;0.55;;
45836;SDS011;31548;51.420;-0.040;2024-02-28T02:37:47;7.32;;;0.88;;
45836;SDS011;31548;51.420;-0.040;2024-02-28T02:40:15;4.57;;;0.70;;
45836;SDS011;31548;51.420;-0.040;2024-02-28T02:42:43;3.20;;;0.60;;
45836;SDS011;31548;51.420;-0.040;2024-02-28T02:45:11;4.05;;;0.60;;
45836;SDS011;31548;51.420;-0.040;2024-02-28T02:47:39;2.33;;;0.70;;
45836;SDS011;31548;51.420;-0.040;2024-02-28T02:50:07;3.08;;;0.70;;
45836;SDS011;31548;51.420;-0.040;2024-02-28T02:52:34;4.72;;;0.50;;
45836;SDS011;31548;51.420;-0.040;2024-02-28T02:55:03;3.55;;;0.60;;
45836;SDS011;31548;51.420;-0.040;2024-02-28T02:57:31;4.50;;;0.80;;
45836;SDS011;31548;51.420;-0.040;2024-02-28T03:00:00;7.60;;;1.02;;
45836;SDS011;31548;51.420;-0.040;2024-02-28T03:02:28;4.20;;;1.08;;
45836;SDS011;31548;51.420;-0.040;2024-02-28T03:04:55;3.58;;;1.02;;
45836;SDS011;31548;51.420;-0.040;2024-02-28T03:07:23;7.88;;;0.68;;
45836;SDS011;31548;51.420;-0.040;2024-02-28T03:09:51;3.03;;;0.70;;
45836;SDS011;31548;51.420;-0.040;2024-02-28T03:12:18;5.00;;;0.60;;
45836;SDS011;31548;51.420;-0.040;2024-02-28T03:14:46;3.83;;;0.85;;
45836;SDS011;31548;51.420;-0.040;2024-02-28T03:17:15;5.10;;;0.85;;
45836;SDS011;31548;51.420;-0.040;2024-02-28T03:19:43;8.82;;;1.30;;
45836;SDS011;31548;51.420;-0.040;2024-02-28T03:22:10;4.45;;;0.80;;
45836;SDS011;31548;51.420;-0.040;2024-02-28T03:24:38;3.75;;;1.20;;
45836;SDS011;31548;51.420;-0.040;2024-02-28T03:27:05;3.33;;;1.30;;
45836;SDS011;31548;51.420;-0.040;2024-02-28T03:29:33;7.60;;;0.80;;
45836;SDS011;31548;51.420;-0.040;2024-02-28T03:32:01;7.22;;;0.90;;
45836;SDS011;31548;51.420;-0.040;2024-02-28T03:34:28;6.07;;;0.73;;
45836;SDS011;31548;51.420;-0.040;2024-02-28T03:36:56;5.82;;;1.65;;
45836;SDS011;31548;51.420;-0.040;2024-02-28T03:39:24;4.00;;;0.80;;
45836;SDS011;31548;51.420;-0.040;2024-02-28T03:41:52;6.68;;;0.80;;
45836;SDS011;31548;51.420;-0.040;2024-02-28T03:44:20;4.80;;;0.85;;
45836;SDS011;31548;51.420;-0.040;2024-02-28T03:46:48;8.13;;;1.15;;
45836;SDS011;31548;51.420;-0.040;2024-02-28T03:49:16;6.93;;;1.33;;
45836;SDS011;31548;51.420;-0.040;2024-02-28T03:51:44;8.68;;;0.88;;
45836;SDS011;31548;51.420;-0.040;2024-02-28T03:54:12;8.27;;;0.85;;
45836;SDS011;31548;51.420;-0.040;2024-02-28T03:56:39;3.78;;;0.80;;
45836;SDS011;31548;51.420;-0.040;2024-02-28T03:59:07;4.55;;;0.80;;
45836;SDS011;31548;51.420;-0.040;2024-02-28T04:01:35;4.18;;;0.80;;
45836;SDS011;31548;51.420;-0.040;2024-02-28T04:04:03;7.35;;;0.88;;
45836;SDS011;31548;51.420;-0.040;2024-02-28T04:06:31;3.58;;;0.88;;
45836;SDS011;31548;51.420;-0.040;2024-02-28T04:08:59;8.50;;;1.08;;
45836;SDS011;31548;51.420;-0.040;2024-02-28T04:11:27;9.68;;;1.23;;
45836;SDS011;31548;51.420;-0.040;2024-02-28T04:13:55;5.47;;;0.70;;
45836;SDS011;31548;51.420;-0.040;2024-02-28T04:16:22;4.30;;;0.80;;
45836;SDS011;31548;51.420;-0.040;2024-02-28T04:18:50;7.60;;;0.80;;
45836;SDS011;31548;51.420;-0.040;2024-02-28T04:21:18;4.70;;;0.70;;
45836;SDS011;31548;51.420;-0.040;2024-02-28T04:23:46;3.45;;;1.08;;
45836;SDS011;31548;51.420;-0.040;2024-02-28T04:26:13;6.07;;;0.77;;
45836;SDS011;31548;51.420;-0.040;2024-02-28T04:28:41;3.40;;;0.73;;
45836;SDS011;31548;51.420;-0.040;2024-02-28T04:31:09;7.38;;;1.25;;
45836;SDS011;31548;51.420;-0.040;2024-02-28T04:33:37;3.88;;;0.82;;
45836;SDS011;31548;51.420;-0.040;2024-02-28T04:36:05;5.07;;;1.00;;
45836;SDS011;31548;51.420;-0.040;2024-02-28T04:38:32;2.95;;;0.90;;
45836;SDS011;31548;51.420;-0.040;2024-02-28T04:41:00;3.33;;;0.68;;
45836;SDS011;31548;51.420;-0.040;2024-02-28T04:43:27;7.50;;;0.90;;
45836;SDS011;31548;51.420;-0.040;2024-02-28T04:45:55;8.38;;;1.10;;
45836;SDS011;31548;51.420;-0.040;2024-02-28T04:48:23;6.93;;;0.90;;
45836;SDS011;31548;51.420;-0.040;2024-02-28T04:50:51;6.70;;;1.02;;
45836;SDS011;31548;51.420;-0.040;2024-02-28T04:53:18;7.68;;;1.20;;
45836;SDS011;31548;51.420;-0.040;2024-02-28T04:55:46;6.68;;;1.10;;
45836;SDS011;31548;51.420;-0.040;2024-02-28T04:58:14;7.35;;;0.80;;
45836;SDS011;31548;51.420;-0.040;2024-02-28T05:00:42;7.70;;;2.25;;
45836;SDS011;31548;51.420;-0.040;2024-02-28T05:03:09;6.38;;;0.82;;
45836;SDS011;31548;51.420;-0.040;2024-02-28T05:05:37;4.40;;;1.20;;
45836;SDS011;31548;51.420;-0.040;2024-02-28T05:08:04;5.95;;;0.82;;
45836;SDS011;31548;51.420;-0.040;2024-02-28T05:10:32;6.78;;;1.50;;
45836;SDS011;31548;51.420;-0.040;2024-02-28T05:13:01;5.25;;;0.90;;
45836;SDS011;31548;51.420;-0.040;2024-02-28T05:15:32;11.88;;;1.20;;
45836;SDS011;31548;51.420;-0.040;2024-02-28T05:18:00;10.13;;;1.48;;
45836;SDS011;31548;51.420;-0.040;2024-02-28T05:20:28;5.85;;;0.95;;
45836;SDS011;31548;51.420;-0.040;2024-02-28T05:22:55;2.63;;;0.85;;
45836;SDS011;31548;51.420;-0.040;2024-02-28T05:25:23;5.63;;;1.85;;
45836;SDS011;31548;51.420;-0.040;2024-02-28T05:27:51;8.18;;;2.42;;
45836;SDS011;31548;51.420;-0.040;2024-02-28T05:30:19;6.38;;;1.92;;
45836;SDS011;31548;51.420;-0.040;2024-02-28T05:32:47;5.63;;;1.85;;
45836;SDS011;31548;51.420;-0.040;2024-02-28T05:35:14;5.95;;;2.13;;
45836;SDS011;31548;51.420;-0.040;2024-02-28T05:37:44;9.65;;;1.83;;
45836;SDS011;31548;51.420;-0.040;2024-02-28T05:40:13;6.28;;;2.08;;
45836;SDS011;31548;51.420;-0.040;2024-02-28T05:42:41;4.40;;;1.38;;
45836;SDS011;31548;51.420;-0.040;2024-02-28T05:45:09;4.25;;;1.90;;
45836;SDS011;31548;51.420;-0.040;2024-02-28T05:47:37;9.05;;;2.10;;
45836;SDS011;31548;51.420;-0.040;2024-02-28T05:50:05;10.82;;;2.60;;
45836;SDS011;31548;51.420;-0.040;2024-02-28T05:52:34;3.85;;;1.92;;
45836;SDS011;31548;51.420;-0.040;2024-02-28T05:55:02;4.35;;;1.65;;
45836;SDS011;31548;51.420;-0.040;2024-02-28T05:57:30;5.05;;;3.35;;
45836;SDS011;31548;51.420;-0.040;2024-02-28T05:59:57;7.07;;;1.65;;
45836;SDS011;31548;51.420;-0.040;2024-02-28T06:02:26;7.28;;;2.13;;
45836;SDS011;31548;51.420;-0.040;2024-02-28T06:04:53;7.50;;;2.00;;
45836;SDS011;31548;51.420;-0.040;2024-02-28T06:07:21;4.40;;;1.60;;
45836;SDS011;31548;51.420;-0.040;2024-02-28T06:09:51;5.10;;;1.88;;
45836;SDS011;31548;51.420;-0.040;2024-02-28T06:12:18;7.70;;;1.80;;
45836;SDS011;31548;51.420;-0.040;2024-02-28T06:14:47;5.95;;;2.08;;
45836;SDS011;31548;51.420;-0.040;2024-02-28T06:17:14;4.63;;;2.17;;
45836;SDS011;31548;51.420;-0.040;2024-02-28T06:19:42;7.80;;;2.25;;
45836;SDS011;31548;51.420;-0.040;2024-02-28T06:22:09;9.02;;;2.63;;
45836;SDS011;31548;51.420;-0.040;2024-02-28T06:24:37;7.10;;;3.05;;
45836;SDS011;31548;51.420;-0.040;2024-02-28T06:27:04;6.28;;;2.70;;
45836;SDS011;31548;51.420;-0.040;2024-02-28T06:29:34;5.10;;;2.30;;
45836;SDS011;31548;51.420;-0.040;2024-02-28T06:32:03;7.72;;;2.13;;
45836;SDS011;31548;51.420;-0.040;2024-02-28T06:34:31;5.60;;;1.92;;
45836;SDS011;31548;51.420;-0.040;2024-02-28T06:36:58;6.22;;;2.10;;
45836;SDS011;31548;51.420;-0.040;2024-02-28T06:39:26;6.07;;;2.70;;
45836;SDS011;31548;51.420;-0.040;2024-02-28T06:41:53;4.20;;;2.03;;
45836;SDS011;31548;51.420;-0.040;2024-02-28T06:44:21;5.10;;;2.35;;
45836;SDS011;31548;51.420;-0.040;2024-02-28T06:46:49;8.23;;;2.63;;
45836;SDS011;31548;51.420;-0.040;2024-02-28T06:49:17;5.18;;;2.03;;
45836;SDS011;31548;51.420;-0.040;2024-02-28T06:51:44;7.88;;;2.28;;
45836;SDS011;31548;51.420;-0.040;2024-02-28T06:54:12;3.58;;;2.30;;
45836;SDS011;31548;51.420;-0.040;2024-02-28T06:56:40;3.67;;;1.70;;
45836;SDS011;31548;51.420;-0.040;2024-02-28T06:59:08;6.15;;;2.53;;
45836;SDS011;31548;51.420;-0.040;2024-02-28T07:01:36;10.57;;;2.60;;
45836;SDS011;31548;51.420;-0.040;2024-02-28T07:04:04;6.45;;;2.25;;
45836;SDS011;31548;51.420;-0.040;2024-02-28T07:06:32;5.93;;;1.70;;
45836;SDS011;31548;51.420;-0.040;2024-02-28T07:08:59;4.93;;;1.88;;
45836;SDS011;31548;51.420;-0.040;2024-02-28T07:11:28;6.07;;;2.20;;
45836;SDS011;31548;51.420;-0.040;2024-02-28T07:13:55;5.82;;;1.80;;
45836;SDS011;31548;51.420;-0.040;2024-02-28T07:16:24;6.78;;;1.73;;
45836;SDS011;31548;51.420;-0.040;2024-02-28T07:18:53;5.38;;;1.90;;
45836;SDS011;31548;51.420;-0.040;2024-02-28T07:21:20;3.42;;;1.75;;
45836;SDS011;31548;51.420;-0.040;2024-02-28T07:23:48;3.83;;;1.55;;
45836;SDS011;31548;51.420;-0.040;2024-02-28T07:26:16;5.55;;;2.25;;
45836;SDS011;31548;51.420;-0.040;2024-02-28T07:28:53;8.30;;;2.10;;
45836;SDS011;31548;51.420;-0.040;2024-02-28T07:31:21;7.38;;;1.55;;
45836;SDS011;31548;51.420;-0.040;2024-02-28T07:33:49;5.13;;;2.08;;
45836;SDS011;31548;51.420;-0.040;2024-02-28T07:36:17;4.90;;;2.03;;
45836;SDS011;31548;51.420;-0.040;2024-02-28T07:38:44;4.97;;;1.65;;
45836;SDS011;31548;51.420;-0.040;2024-02-28T07:41:12;4.78;;;1.85;;
45836;SDS011;31548;51.420;-0.040;2024-02-28T07:43:43;7.95;;;2.85;;
45836;SDS011;31548;51.420;-0.040;2024-02-28T07:46:11;5.38;;;2.17;;
45836;SDS011;31548;51.420;-0.040;2024-02-28T07:48:39;6.13;;;1.88;;
45836;SDS011;31548;51.420;-0.040;2024-02-28T07:51:07;10.38;;;2.33;;
45836;SDS011;31548;51.420;-0.040;2024-02-28T07:53:35;2.85;;;1.55;;
45836;SDS011;31548;51.420;-0.040;2024-02-28T07:56:03;8.15;;;2.03;;
45836;SDS011;31548;51.420;-0.040;2024-02-28T07:58:31;4.05;;;1.95;;
45836;SDS011;31548;51.420;-0.040;2024-02-28T08:00:58;4.82;;;1.52;;
45836;SDS011;31548;51.420;-0.040;2024-02-28T08:03:26;8.30;;;1.63;;
45836;SDS011;31548;51.420;-0.040;2024-02-28T08:05:54;6.40;;;1.52;;
45836;SDS011;31548;51.420;-0.040;2024-02-28T08:08:22;3.30;;;1.00;;
45836;SDS011;31548;51.420;-0.040;2024-02-28T08:10:50;3.55;;;0.95;;
45836;SDS011;31548;51.420;-0.040;2024-02-28T08:13:20;5.43;;;1.27;;
45836;SDS011;31548;51.420;-0.040;2024-02-28T08:15:47;2.72;;;1.05;;
45836;SDS011;31548;51.420;-0.040;2024-02-28T08:18:15;4.93;;;1.38;;
45836;SDS011;31548;51.420;-0.040;2024-02-28T08:20:43;1.80;;;1.10;;
45836;SDS011;31548;51.420;-0.040;2024-02-28T08:23:10;2.55;;;1.15;;
45836;SDS011;31548;51.420;-0.040;2024-02-28T08:25:38;2.83;;;1.20;;
45836;SDS011;31548;51.420;-0.040;2024-02-28T08:28:09;3.15;;;1.10;;
45836;SDS011;31548;51.420;-0.040;2024-02-28T08:30:37;4.28;;;1.17;;
45836;SDS011;31548;51.420;-0.040;2024-02-28T08:33:06;6.35;;;1.58;;
45836;SDS011;31548;51.420;-0.040;2024-02-28T08:35:36;2.53;;;1.35;;
45836;SDS011;31548;51.420;-0.040;2024-02-28T08:38:04;4.80;;;2.20;;
45836;SDS011;31548;51.420;-0.040;2024-02-28T08:40:31;6.82;;;3.58;;
45836;SDS011;31548;51.420;-0.040;2024-02-28T08:42:59;8.32;;;3.40;;
45836;SDS011;31548;51.420;-0.040;2024-02-28T08:45:29;7.95;;;3.35;;
45836;SDS011;31548;51.420;-0.040;2024-02-28T08:47:58;10.20;;;4.95;;
45836;SDS011;31548;51.420;-0.040;2024-02-28T08:50:28;10.68;;;4.40;;
45836;SDS011;31548;51.420;-0.040;2024-02-28T08:52:56;10.40;;;5.15;;
45836;SDS011;31548;51.420;-0.040;2024-02-28T08:55:24;9.80;;;5.15;;
45836;SDS011;31548;51.420;-0.040;2024-02-28T08:57:52;12.65;;;4.47;;
45836;SDS011;31548;51.420;-0.040;2024-02-28T09:00:19;8.30;;;3.95;;
45836;SDS011;31548;51.420;-0.040;2024-02-28T09:02:49;8.40;;;3.20;;
45836;SDS011;31548;51.420;-0.040;2024-02-28T09:05:16;6.53;;;2.67;;
45836;SDS011;31548;51.420;-0.040;2024-02-28T09:07:44;8.63;;;3.30;;
45836;SDS011;31548;51.420;-0.040;2024-02-28T09:10:13;5.45;;;3.00;;
45836;SDS011;31548;51.420;-0.040;2024-02-28T09:12:41;7.65;;;3.95;;
45836;SDS011;31548;51.420;-0.040;2024-02-28T09:15:09;8.13;;;2.60;;
45836;SDS011;31548;51.420;-0.040;2024-02-28T09:17:37;7.65;;;3.08;;
45836;SDS011;31548;51.420;-0.040;2024-02-28T09:20:04;5.72;;;2.40;;
45836;SDS011;31548;51.420;-0.040;2024-02-28T09:22:33;6.38;;;2.58;;
45836;SDS011;31548;51.420;-0.040;2024-02-28T09:25:01;6.80;;;3.08;;
45836;SDS011;31548;51.420;-0.040;2024-02-28T09:27:31;5.90;;;3.17;;
45836;SDS011;31548;51.420;-0.040;2024-02-28T09:29:58;8.75;;;3.38;;
45836;SDS011;31548;51.420;-0.040;2024-02-28T09:32:27;8.93;;;3.60;;
45836;SDS011;31548;51.420;-0.040;2024-02-28T09:34:54;7.43;;;3.10;;
45836;SDS011;31548;51.420;-0.040;2024-02-28T09:37:22;6.15;;;3.15;;
45836;SDS011;31548;51.420;-0.040;2024-02-28T09:39:51;9.02;;;3.88;;
45836;SDS011;31548;51.420;-0.040;2024-02-28T09:42:19;5.82;;;3.33;;
45836;SDS011;31548;51.420;-0.040;2024-02-28T09:44:47;13.55;;;4.95;;
45836;SDS011;31548;51.420;-0.040;2024-02-28T09:47:16;11.30;;;5.45;;
45836;SDS011;31548;51.420;-0.040;2024-02-28T09:49:50;12.15;;;3.15;;
45836;SDS011;31548;51.420;-0.040;2024-02-28T09:52:20;8.48;;;4.53;;
45836;SDS011;31548;51.420;-0.040;2024-02-28T09:54:48;10.65;;;4.03;;
45836;SDS011;31548;51.420;-0.040;2024-02-28T09:57:16;12.75;;;4.10;;
45836;SDS011;31548;51.420;-0.040;2024-02-28T09:59:45;8.68;;;5.10;;
45836;SDS011;31548;51.420;-0.040;2024-02-28T10:02:21;9.07;;;4.28;;
45836;SDS011;31548;51.420;-0.040;2024-02-28T10:04:52;3.90;;;2.78;;
45836;SDS011;31548;51.420;-0.040;2024-02-28T10:07:19;5.93;;;3.40;;
45836;SDS011;31548;51.420;-0.040;2024-02-28T10:09:47;9.23;;;3.25;;
45836;SDS011;31548;51.420;-0.040;2024-02-28T10:12:14;8.25;;;3.13;;
45836;SDS011;31548;51.420;-0.040;2024-02-28T10:14:42;8.18;;;3.60;;
45836;SDS011;31548;51.420;-0.040;2024-02-28T10:17:09;6.70;;;2.60;;
45836;SDS011;31548;51.420;-0.040;2024-02-28T10:19:37;8.05;;;3.08;;
45836;SDS011;31548;51.420;-0.040;2024-02-28T10:22:06;10.15;;;3.15;;
45836;SDS011;31548;51.420;-0.040;2024-02-28T10:24:34;5.10;;;2.78;;
45836;SDS011;31548;51.420;-0.040;2024-02-28T10:27:01;11.30;;;4.53;;
45836;SDS011;31548;51.420;-0.040;2024-02-28T10:29:29;5.38;;;2.90;;
45836;SDS011;31548;51.420;-0.040;2024-02-28T10:32:00;8.60;;;2.42;;
45836;SDS011;31548;51.420;-0.040;2024-02-28T10:34:28;3.05;;;1.30;;
45836;SDS011;31548;51.420;-0.040;2024-02-28T10:36:57;9.60;;;2.08;;
45836;SDS011;31548;51.420;-0.040;2024-02-28T10:39:26;7.78;;;1.63;;
45836;SDS011;31548;51.420;-0.040;2024-02-28T10:41:55;9.13;;;1.35;;
45836;SDS011;31548;51.420;-0.040;2024-02-28T10:44:29;6.47;;;1.60;;
45836;SDS011;31548;51.420;-0.040;2024-02-28T10:46:58;4.35;;;2.03;;
45836;SDS011;31548;51.420;-0.040;2024-02-28T10:49:28;6.32;;;1.45;;
45836;SDS011;31548;51.420;-0.040;2024-02-28T10:51:57;5.45;;;0.98;;
45836;SDS011;31548;51.420;-0.040;2024-02-28T10:54:28;4.80;;;1.30;;
45836;SDS011;31548;51.420;-0.040;2024-02-28T10:56:58;6.85;;;1.10;;
45836;SDS011;31548;51.420;-0.040;2024-02-28T10:59:27;7.32;;;1.40;;
45836;SDS011;31548;51.420;-0.040;2024-02-28T11:01:56;8.88;;;1.83;;
45836;SDS011;31548;51.420;-0.040;2024-02-28T11:04:24;3.67;;;0.82;;
45836;SDS011;31548;51.420;-0.040;2024-02-28T11:06:55;5.20;;;1.02;;
45836;SDS011;31548;51.420;-0.040;2024-02-28T11:09:24;2.83;;;1.00;;
45836;SDS011;31548;51.420;-0.040;2024-02-28T11:11:54;4.13;;;1.00;;
45836;SDS011;31548;51.420;-0.040;2024-02-28T11:14:25;2.00;;;0.70;;
45836;SDS011;31548;51.420;-0.040;2024-02-28T11:19:32;3.88;;;0.85;;
45836;SDS011;31548;51.420;-0.040;2024-02-28T11:22:02;1.98;;;0.75;;
45836;SDS011;31548;51.420;-0.040;2024-02-28T11:24:33;4.50;;;0.82;;
45836;SDS011;31548;51.420;-0.040;2024-02-28T11:27:04;5.57;;;0.70;;
45836;SDS011;31548;51.420;-0.040;2024-02-28T11:29:34;4.75;;;0.70;;
45836;SDS011;31548;51.420;-0.040;2024-02-28T11:32:02;7.47;;;0.77;;
45836;SDS011;31548;51.420;-0.040;2024-02-28T11:34:31;6.15;;;0.82;;
45836;SDS011;31548;51.420;-0.040;2024-02-28T11:36:58;4.07;;;0.52;;
45836;SDS011;31548;51.420;-0.040;2024-02-28T11:39:26;2.13;;;0.60;;
45836;SDS011;31548;51.420;-0.040;2024-02-28T11:42:08;3.08;;;0.70;;
45836;SDS011;31548;51.420;-0.040;2024-02-28T11:44:36;3.38;;;0.88;;
45836;SDS011;31548;51.420;-0.040;2024-02-28T11:47:04;6.10;;;0.70;;
45836;SDS011;31548;51.420;-0.040;2024-02-28T11:49:35;5.93;;;0.93;;
45836;SDS011;31548;51.420;-0.040;2024-02-28T11:52:02;4.63;;;0.60;;
45836;SDS011;31548;51.420;-0.040;2024-02-28T11:54:31;4.50;;;0.65;;
45836;SDS011;31548;51.420;-0.040;2024-02-28T11:56:59;3.58;;;0.68;;
45836;SDS011;31548;51.420;-0.040;2024-02-28T11:59:27;4.13;;;0.50;;
45836;SDS011;31548;51.420;-0.040;2024-02-28T12:01:54;3.78;;;0.47;;
45836;SDS011;31548;51.420;-0.040;2024-02-28T12:04:25;5.75;;;1.02;;
45836;SDS011;31548;51.420;-0.040;2024-02-28T12:06:53;4.22;;;0.65;;
45836;SDS011;31548;51.420;-0.040;2024-02-28T12:09:21;2.92;;;0.93;;
45836;SDS011;31548;51.420;-0.040;2024-02-28T12:12:00;4.32;;;0.77;;
45836;SDS011;31548;51.420;-0.040;2024-02-28T12:14:29;3.13;;;0.77;;
45836;SDS011;31548;51.420;-0.040;2024-02-28T12:17:03;5.15;;;0.98;;
45836;SDS011;31548;51.420;-0.040;2024-02-28T12:19:31;4.05;;;0.70;;
45836;SDS011;31548;51.420;-0.040;2024-02-28T12:21:58;7.53;;;0.70;;
45836;SDS011;31548;51.420;-0.040;2024-02-28T12:24:26;3.42;;;0.50;;
45836;SDS011;31548;51.420;-0.040;2024-02-28T12:26:54;3.00;;;0.60;;
45836;SDS011;31548;51.420;-0.040;2024-02-28T12:30:27;3.45;;;0.68;;
45836;SDS011;31548;51.420;-0.040;2024-02-28T12:32:55;5.95;;;0.90;;
45836;SDS011;31548;51.420;-0.040;2024-02-28T12:35:37;0.90;;;0.50;;
45836;SDS011;31548;51.420;-0.040;2024-02-28T12:38:05;9.32;;;0.63;;
45836;SDS011;31548;51.420;-0.040;2024-02-28T12:40:33;8.00;;;0.50;;
45836;SDS011;31548;51.420;-0.040;2024-02-28T12:43:01;5.05;;;0.60;;
45836;SDS011;31548;51.420;-0.040;2024-02-28T12:45:29;4.18;;;0.80;;
45836;SDS011;31548;51.420;-0.040;2024-02-28T12:47:58;4.20;;;0.60;;
45836;SDS011;31548;51.420;-0.040;2024-02-28T12:50:28;8.02;;;0.63;;
45836;SDS011;31548;51.420;-0.040;2024-02-28T12:52:55;3.17;;;0.50;;
45836;SDS011;31548;51.420;-0.040;2024-02-28T12:55:23;9.68;;;0.90;;
45836;SDS011;31548;51.420;-0.040;2024-02-28T12:57:51;4.72;;;1.17;;
45836;SDS011;31548;51.420;-0.040;2024-02-28T13:00:18;9.45;;;0.75;;
45836;SDS011;31548;51.420;-0.040;2024-02-28T13:02:46;4.50;;;0.75;;
45836;SDS011;31548;51.420;-0.040;2024-02-28T13:05:14;8.93;;;0.80;;
45836;SDS011;31548;51.420;-0.040;2024-02-28T13:07:42;8.05;;;0.73;;
45836;SDS011;31548;51.420;-0.040;2024-02-28T13:10:09;7.10;;;0.70;;
45836;SDS011;31548;51.420;-0.040;2024-02-28T13:12:37;7.03;;;0.63;;
45836;SDS011;31548;51.420;-0.040;2024-02-28T13:15:06;5.75;;;0.55;;
45836;SDS011;31548;51.420;-0.040;2024-02-28T13:17:35;8.35;;;0.68;;
45836;SDS011;31548;51.420;-0.040;2024-02-28T13:20:03;6.95;;;0.60;;
45836;SDS011;31548;51.420;-0.040;2024-02-28T13:22:31;3.72;;;0.70;;
45836;SDS011;31548;51.420;-0.040;2024-02-28T13:24:58;6.75;;;0.70;;
45836;SDS011;31548;51.420;-0.040;2024-02-28T13:27:27;6.35;;;0.75;;
45836;SDS011;31548;51.420;-0.040;2024-02-28T13:29:55;8.70;;;0.80;;
45836;SDS011;31548;51.420;-0.040;2024-02-28T13:32:23;7.70;;;1.08;;
45836;SDS011;31548;51.420;-0.040;2024-02-28T13:34:51;9.38;;;0.80;;
45836;SDS011;31548;51.420;-0.040;2024-02-28T13:37:18;6.20;;;0.60;;
45836;SDS011;31548;51.420;-0.040;2024-02-28T13:39:46;5.10;;;1.13;;
45836;SDS011;31548;51.420;-0.040;2024-02-28T13:42:13;9.88;;;1.15;;
45836;SDS011;31548;51.420;-0.040;2024-02-28T13:44:41;2.67;;;0.50;;
45836;SDS011;31548;51.420;-0.040;2024-02-28T13:47:09;3.13;;;0.50;;
45836;SDS011;31548;51.420;-0.040;2024-02-28T13:49:37;3.03;;;0.60;;
45836;SDS011;31548;51.420;-0.040;2024-02-28T13:52:05;5.10;;;0.68;;
45836;SDS011;31548;51.420;-0.040;2024-02-28T13:54:33;5.72;;;0.52;;
45836;SDS011;31548;51.420;-0.040;2024-02-28T13:57:02;8.57;;;2.15;;
45836;SDS011;31548;51.420;-0.040;2024-02-28T13:59:34;8.18;;;0.60;;
45836;SDS011;31548;51.420;-0.040;2024-02-28T14:02:01;9.82;;;0.77;;
45836;SDS011;31548;51.420;-0.040;2024-02-28T14:04:29;7.97;;;0.70;;
45836;SDS011;31548;51.420;-0.040;2024-02-28T14:06:56;6.50;;;0.80;;
45836;SDS011;31548;51.420;-0.040;2024-02-28T14:09:24;6.97;;;0.75;;
45836;SDS011;31548;51.420;-0.040;2024-02-28T14:11:51;8.65;;;0.82;;
45836;SDS011;31548;51.420;-0.040;2024-02-28T14:14:19;7.20;;;0.95;;
45836;SDS011;31548;51.420;-0.040;2024-02-28T14:16:46;8.05;;;0.80;;
45836;SDS011;31548;51.420;-0.040;2024-02-28T14:19:13;9.55;;;1.15;;
45836;SDS011;31548;51.420;-0.040;2024-02-28T14:21:41;8.10;;;1.05;;
45836;SDS011;31548;51.420;-0.040;2024-02-28T14:24:08;13.27;;;1.45;;
45836;SDS011;31548;51.420;-0.040;2024-02-28T14:26:37;8.88;;;1.02;;
45836;SDS011;31548;51.420;-0.040;2024-02-28T14:29:05;12.30;;;1.88;;
45836;SDS011;31548;51.420;-0.040;2024-02-28T14:31:32;13.57;;;1.48;;
45836;SDS011;31548;51.420;-0.040;2024-02-28T14:33:59;9.02;;;0.98;;
45836;SDS011;31548;51.420;-0.040;2024-02-28T14:36:27;11.20;;;1.33;;
45836;SDS011;31548;51.420;-0.040;2024-02-28T14:38:55;13.50;;;1.65;;
45836;SDS011;31548;51.420;-0.040;2024-02-28T14:41:23;13.07;;;1.35;;
45836;SDS011;31548;51.420;-0.040;2024-02-28T14:43:51;15.48;;;2.20;;